Wolftown, Virginia
Current Conditions -  °F | °C
As of 11:53 PM on Saturday 25 Oct 2014 (Local Time) from KCHO Reporting Station
Clear Clear  
Wind Chill: 64°   Ceiling: Unl
Heat Index: 64°   Visibility: 10mi
Dew Point: 46°   Wind: 6mph
Humidity: 52%   Direction: 230°SW
Pressure: 29.75"   Gusts: NA
Location:  38.36°N, 78.35°W
Report Text: KCHO 260353Z AUTO 23005KT 10SM CLR 18/08 A2975 RMK AO2 SLP070 T01780078
Loading
Personal Weather Stations






























Interactive Weather Map
Tropical Storm Tracking
New forecast layout! Learn more

10-Day Weather Forecast

Advertisements
Track Severe Weather on mobile